Terminal Aerodrome Forecast
Issued by NWS Portland, OR

Home | Current Version | Previous Version | Text Only | Print | Product List | Glossary On
Versions: 1 2 3 4 5 6 7 8 9 10 11 12 13 14 15 16 17 18 19 20 21 22 23 24 25 26 27 28 29 30 31 32 33 34 35 36 37 38
119
FTUS46 KPQR 230520
TAFAST
TAF
KAST 230520Z 2306/2406 21008KT P6SM VCSH SCT010 BKN025 BKN050
     FM231200 16005KT P6SM -RA BKN025 OVC050
     FM231700 19012G20KT 6SM -SHRA BR BKN015 OVC035
     FM240200 21006KT P6SM -RA SCT007 BKN015 OVC035=

USA.gov is the U.S. government's official web portal to all federal, state and local government web resources and services.